Terminal Aerodrome Forecast
Issued by NWS

Home | Current Version | Previous Version | Text Only | Print | Product List | Glossary On
Versions: 1 2 3 4 5 6 7 8 9 10 11 12 13 14 15
205
FTUS46 KLOX 252330
TAFBUR
TAF
KBUR 252330Z 2600/2624 17010KT P6SM SKC
     FM260400 14005KT P6SM BKN200
     FM262000 17010KT P6SM SCT130 BKN200=

USA.gov is the U.S. government's official web portal to all federal, state and local government web resources and services.